createdAt,value
2023-01-04T00:00:03.217Z,0.68
2023-01-04T00:02:33.468Z,0.68
2023-01-04T00:05:02.668Z,0.67
2023-01-04T00:07:31.515Z,0.65
2023-01-04T00:10:01.391Z,0.65
2023-01-04T00:12:29.926Z,0.63
2023-01-04T00:14:58.349Z,0.63
2023-01-04T00:17:26.813Z,0.62
2023-01-04T00:19:55.381Z,0.60
2023-01-04T00:22:24.015Z,0.58
2023-01-04T00:24:52.745Z,0.55
2023-01-04T00:27:22.738Z,0.54
2023-01-04T00:29:51.230Z,0.56
2023-01-04T00:32:19.852Z,0.54
2023-01-04T00:34:48.719Z,0.57
2023-01-04T00:37:17.245Z,0.55
2023-01-04T00:39:45.684Z,0.55
2023-01-04T00:42:14.304Z,0.50
2023-01-04T00:44:44.999Z,0.41
2023-01-04T00:47:13.598Z,0.36
2023-01-04T00:49:42.023Z,0.33
2023-01-04T00:52:11.143Z,0.37
2023-01-04T00:54:40.762Z,0.36
2023-01-04T00:57:09.203Z,0.33
2023-01-04T00:59:38.092Z,0.28
2023-01-04T01:02:08.430Z,0.22
2023-01-04T01:04:37.853Z,0.22
2023-01-04T01:07:06.716Z,0.22
2023-01-04T01:09:35.486Z,0.15
2023-01-04T01:12:04.029Z,0.12
2023-01-04T01:14:32.393Z,0.16
2023-01-04T01:17:01.031Z,0.13
2023-01-04T01:19:32.285Z,0.16
2023-01-04T01:22:00.805Z,0.17
2023-01-04T01:24:29.645Z,0.18
2023-01-04T01:26:58.382Z,0.20
2023-01-04T01:29:27.458Z,0.22
2023-01-04T01:31:55.998Z,0.21
2023-01-04T01:34:24.666Z,0.15
2023-01-04T01:36:54.734Z,0.09
2023-01-04T01:39:23.278Z,0.03
2023-01-04T01:41:51.773Z,-0.01
2023-01-04T01:44:58.233Z,0.03
2023-01-04T01:47:30.074Z,0.08
2023-01-04T01:49:59.559Z,0.08
2023-01-04T01:52:34.597Z,0.06
2023-01-04T01:55:06.410Z,0.03
2023-01-04T01:57:35.775Z,0.02
2023-01-04T02:00:08.877Z,-0.04
2023-01-04T02:02:51.524Z,-0.12
2023-01-04T02:05:21.508Z,-0.19
2023-01-04T02:07:52.150Z,-0.23
2023-01-04T02:10:21.691Z,-0.24
2023-01-04T02:12:52.185Z,-0.26
2023-01-04T02:15:28.053Z,-0.22
2023-01-04T02:18:04.383Z,-0.25
2023-01-04T02:20:40.499Z,-0.34
2023-01-04T02:23:48.734Z,-0.43
2023-01-04T02:26:58.528Z,-0.52
2023-01-04T02:30:06.114Z,-0.57
2023-01-04T02:32:48.934Z,-0.54
2023-01-04T02:35:25.173Z,-0.48
2023-01-04T02:38:05.527Z,-0.43
2023-01-04T02:40:44.014Z,-0.34
2023-01-04T02:43:36.972Z,-0.34
2023-01-04T02:46:11.422Z,-0.37
2023-01-04T02:48:59.622Z,-0.42
2023-01-04T02:51:31.308Z,-0.45
2023-01-04T02:54:05.025Z,-0.43
2023-01-04T02:56:46.427Z,-0.44
2023-01-04T02:59:34.879Z,-0.39
2023-01-04T03:02:35.593Z,-0.34
2023-01-04T03:05:32.613Z,-0.27
2023-01-04T03:08:12.868Z,-0.24
2023-01-04T03:10:48.412Z,-0.18
2023-01-04T03:13:20.608Z,-0.21
2023-01-04T03:15:56.096Z,-0.25
2023-01-04T03:18:28.896Z,-0.30
2023-01-04T03:21:02.617Z,-0.34
2023-01-04T03:23:53.443Z,-0.41
2023-01-04T03:26:45.706Z,-0.50
2023-01-04T03:29:36.476Z,-0.55
2023-01-04T03:32:27.327Z,-0.64
2023-01-04T03:35:14.222Z,-0.74
2023-01-04T03:37:49.955Z,-0.85
2023-01-04T03:40:42.714Z,-0.89
2023-01-04T03:43:34.772Z,-0.87
2023-01-04T03:46:24.313Z,-0.81
2023-01-04T03:48:59.151Z,-0.80
2023-01-04T03:51:30.843Z,-0.77
2023-01-04T03:54:05.217Z,-0.73
2023-01-04T03:56:35.063Z,-0.69
2023-01-04T03:59:03.888Z,-0.66
2023-01-04T04:01:33.265Z,-0.67
2023-01-04T04:04:19.986Z,-0.58
2023-01-04T04:07:06.146Z,-0.56
2023-01-04T04:09:36.399Z,-0.57
2023-01-04T04:12:05.147Z,-0.58
2023-01-04T04:14:34.405Z,-0.57
2023-01-04T04:17:03.118Z,-0.55
2023-01-04T04:19:32.291Z,-0.53
2023-01-04T04:22:00.803Z,-0.51
2023-01-04T04:24:29.522Z,-0.49
2023-01-04T04:26:59.512Z,-0.50
2023-01-04T04:29:27.950Z,-0.52
2023-01-04T04:31:56.643Z,-0.54
2023-01-04T04:34:25.318Z,-0.60
2023-01-04T04:36:53.792Z,-0.62
2023-01-04T04:39:22.343Z,-0.65
2023-01-04T04:41:49.982Z,-0.66
2023-01-04T04:44:21.432Z,-0.71
2023-01-04T04:46:50.403Z,-0.79
2023-01-04T04:49:19.825Z,-0.84
2023-01-04T04:51:48.544Z,-0.83
2023-01-04T04:54:20.154Z,-0.85
2023-01-04T04:56:48.877Z,-0.88
2023-01-04T04:59:19.328Z,-0.90
2023-01-04T05:01:48.063Z,-0.92
2023-01-04T05:04:19.828Z,-0.92
2023-01-04T05:06:50.597Z,-0.95
2023-01-04T05:09:19.818Z,-0.98
2023-01-04T05:12:06.381Z,-0.99
2023-01-04T05:14:36.314Z,-0.96
2023-01-04T05:17:04.799Z,-0.93
2023-01-04T05:19:33.299Z,-0.92
2023-01-04T05:22:01.735Z,-0.92
2023-01-04T05:24:30.324Z,-0.93
2023-01-04T05:26:58.805Z,-0.95
2023-01-04T05:29:44.940Z,-0.97
2023-01-04T05:32:14.961Z,-1.00
2023-01-04T05:34:43.627Z,-1.04
2023-01-04T05:37:12.321Z,-1.07
2023-01-04T05:39:40.924Z,-1.10
2023-01-04T05:42:28.482Z,-1.15
2023-01-04T05:44:58.760Z,-1.16
2023-01-04T05:47:29.246Z,-1.15
2023-01-04T05:49:57.797Z,-1.15
2023-01-04T05:52:26.588Z,-1.16
2023-01-04T05:54:55.070Z,-1.17
2023-01-04T05:57:23.713Z,-1.20
2023-01-04T05:59:52.859Z,-1.19
2023-01-04T06:02:24.683Z,-1.19
2023-01-04T06:04:59.218Z,-1.20
2023-01-04T06:07:29.362Z,-1.22
2023-01-04T06:09:58.443Z,-1.24
2023-01-04T06:12:27.070Z,-1.26
2023-01-04T06:14:55.602Z,-1.26
2023-01-04T06:17:24.204Z,-1.28
2023-01-04T06:19:54.341Z,-1.26
2023-01-04T06:22:22.962Z,-1.29
2023-01-04T06:24:51.526Z,-1.26
2023-01-04T06:27:20.204Z,-1.28
2023-01-04T06:29:48.888Z,-1.30
2023-01-04T06:32:17.840Z,-1.30
2023-01-04T06:34:46.403Z,-1.39
2023-01-04T06:37:17.010Z,-1.45
2023-01-04T06:39:45.436Z,-1.49
2023-01-04T06:42:28.107Z,-1.52
2023-01-04T06:44:56.826Z,-1.53
2023-01-04T06:47:25.510Z,-1.54
2023-01-04T06:49:54.425Z,-1.51
2023-01-04T06:52:24.923Z,-1.49
2023-01-04T06:54:53.505Z,-1.51
2023-01-04T06:57:22.069Z,-1.54
2023-01-04T06:59:51.454Z,-1.56
2023-01-04T07:02:21.495Z,-1.53
2023-01-04T07:04:50.520Z,-1.49
2023-01-04T07:07:19.521Z,-1.47
2023-01-04T07:09:49.753Z,-1.51
2023-01-04T07:12:18.479Z,-1.53
2023-01-04T07:14:46.956Z,-1.59
2023-01-04T07:17:15.566Z,-1.63
2023-01-04T07:19:44.104Z,-1.62
2023-01-04T07:22:13.376Z,-1.61
2023-01-04T07:24:43.332Z,-1.60
2023-01-04T07:27:13.357Z,-1.59
2023-01-04T07:29:44.464Z,-1.57
2023-01-04T07:32:14.164Z,-1.56
2023-01-04T07:34:43.464Z,-1.54
2023-01-04T07:37:13.300Z,-1.50
2023-01-04T07:39:44.065Z,-1.45
2023-01-04T07:42:14.073Z,-1.43
2023-01-04T07:44:42.642Z,-1.35
2023-01-04T07:47:11.821Z,-1.27
2023-01-04T07:49:40.363Z,-1.19
2023-01-04T07:52:08.951Z,-1.03
2023-01-04T07:54:37.566Z,-0.89
2023-01-04T07:57:06.136Z,-0.87
2023-01-04T07:59:36.472Z,-0.81
2023-01-04T08:02:05.543Z,-0.72
2023-01-04T08:04:35.442Z,-0.67
2023-01-04T08:07:04.351Z,-0.62
2023-01-04T08:09:32.882Z,-0.57
2023-01-04T08:12:01.816Z,-0.54
2023-01-04T08:14:30.419Z,-0.49
2023-01-04T08:17:00.552Z,-0.45
2023-01-04T08:19:29.608Z,-0.41
2023-01-04T08:21:58.241Z,-0.34
2023-01-04T08:24:27.574Z,-0.28
2023-01-04T08:26:56.471Z,-0.22
2023-01-04T08:29:28.170Z,-0.12
2023-01-04T08:32:02.952Z,-0.05
2023-01-04T08:34:32.437Z,0.04
2023-01-04T08:37:00.776Z,0.10
2023-01-04T08:39:29.736Z,0.16
2023-01-04T08:42:06.882Z,0.23
2023-01-04T08:44:43.893Z,0.28
2023-01-04T08:47:14.039Z,0.31
2023-01-04T08:49:43.354Z,0.35
2023-01-04T08:52:12.422Z,0.38
2023-01-04T08:54:42.346Z,0.46
2023-01-04T08:57:10.949Z,0.49
2023-01-04T08:59:40.074Z,0.60
2023-01-04T09:02:22.105Z,0.66
2023-01-04T09:04:51.485Z,0.75
2023-01-04T09:07:20.517Z,0.83
2023-01-04T09:09:49.316Z,0.89
2023-01-04T09:12:17.973Z,0.93
2023-01-04T09:14:46.486Z,1.00
2023-01-04T09:17:17.304Z,1.12
2023-01-04T09:19:45.829Z,1.25
2023-01-04T09:22:14.542Z,1.43
2023-01-04T09:24:43.637Z,1.50
2023-01-04T09:27:12.421Z,1.61
2023-01-04T09:29:41.576Z,1.68
2023-01-04T09:32:16.150Z,1.77
2023-01-04T09:34:46.899Z,1.85
2023-01-04T09:37:15.481Z,1.93
2023-01-04T09:39:44.458Z,2.01
2023-01-04T09:42:21.856Z,2.12
2023-01-04T09:45:22.515Z,2.29
2023-01-04T09:47:48.897Z,2.41
2023-01-04T09:50:23.461Z,2.50
2023-01-04T09:53:02.633Z,2.64
2023-01-04T09:55:40.765Z,2.85
2023-01-04T09:58:21.786Z,3.03
2023-01-04T10:00:55.250Z,3.15
2023-01-04T10:03:26.823Z,3.20
2023-01-04T10:05:57.914Z,3.19
2023-01-04T10:08:26.700Z,3.26
2023-01-04T10:11:06.971Z,3.36
2023-01-04T10:13:59.047Z,3.43
2023-01-04T10:17:11.774Z,3.50
2023-01-04T10:22:46.230Z,3.82
2023-01-04T10:25:25.894Z,3.87
2023-01-04T10:28:08.310Z,3.96
2023-01-04T10:30:43.663Z,4.11
2023-01-04T10:33:15.506Z,4.23
2023-01-04T10:35:44.847Z,4.28
2023-01-04T10:38:18.858Z,4.29
2023-01-04T10:40:50.567Z,4.37
2023-01-04T10:43:32.024Z,4.51
2023-01-04T10:46:27.142Z,4.63
2023-01-04T10:49:00.964Z,4.72
2023-01-04T10:51:36.765Z,4.82
2023-01-04T10:54:18.134Z,5.00
2023-01-04T10:56:52.827Z,5.16
2023-01-04T10:59:27.588Z,5.26
2023-01-04T11:02:00.823Z,5.37
2023-01-04T11:04:34.751Z,5.46
2023-01-04T11:07:10.158Z,5.55
2023-01-04T11:09:48.011Z,5.57
2023-01-04T11:12:20.483Z,5.59
2023-01-04T11:14:50.278Z,5.63
2023-01-04T11:17:19.414Z,5.68
2023-01-04T11:19:49.143Z,5.71
2023-01-04T11:22:23.522Z,5.72
2023-01-04T11:27:49.054Z,5.77
2023-01-04T11:30:21.317Z,5.81
2023-01-04T11:32:56.409Z,5.89
2023-01-04T11:35:42.626Z,5.96
2023-01-04T11:38:15.654Z,5.97
2023-01-04T11:40:57.699Z,5.96
2023-01-04T11:43:28.207Z,5.98
2023-01-04T11:46:02.689Z,6.02
2023-01-04T11:48:40.104Z,6.09
2023-01-04T11:51:19.575Z,6.18
2023-01-04T11:53:59.148Z,6.23
2023-01-04T11:56:31.253Z,6.23
2023-01-04T11:59:16.539Z,6.17
2023-01-04T12:01:51.812Z,6.17
2023-01-04T12:04:25.364Z,6.17
2023-01-04T12:06:56.969Z,6.16
2023-01-04T12:09:25.452Z,6.14
2023-01-04T12:11:57.535Z,6.11
2023-01-04T12:14:28.175Z,6.12
2023-01-04T12:17:03.143Z,6.15
2023-01-04T12:19:32.962Z,6.17
2023-01-04T12:22:03.979Z,6.15
2023-01-04T12:24:35.343Z,6.13
2023-01-04T12:27:05.545Z,6.14
2023-01-04T12:29:47.178Z,6.13
2023-01-04T12:32:55.133Z,6.12
2023-01-04T12:36:04.097Z,6.09
2023-01-04T12:39:29.227Z,6.05
2023-01-04T12:42:24.899Z,6.01
2023-01-04T12:45:18.562Z,5.99
2023-01-04T12:48:08.011Z,5.96
2023-01-04T12:51:37.256Z,5.98
2023-01-04T12:54:24.707Z,6.05
2023-01-04T12:57:13.010Z,6.07
2023-01-04T12:59:57.274Z,6.08
2023-01-04T13:02:28.783Z,6.07
2023-01-04T13:05:45.168Z,6.11
2023-01-04T13:07:51.847Z,6.11
2023-01-04T13:10:28.364Z,6.12
2023-01-04T13:13:22.358Z,6.09
2023-01-04T13:16:04.802Z,6.10
2023-01-04T13:18:39.274Z,6.11
2023-01-04T13:21:14.310Z,6.10
2023-01-04T13:23:51.260Z,6.11
2023-01-04T13:26:38.744Z,6.10
2023-01-04T13:29:19.602Z,6.06
2023-01-04T13:31:58.665Z,6.05
2023-01-04T13:34:32.140Z,6.02
2023-01-04T13:37:15.375Z,5.98
2023-01-04T13:39:46.310Z,5.97
2023-01-04T13:42:22.633Z,5.94
2023-01-04T13:45:25.051Z,5.85
2023-01-04T13:47:59.336Z,5.79
2023-01-04T13:50:35.033Z,5.73
2023-01-04T13:53:07.964Z,5.67
2023-01-04T13:55:38.637Z,5.63
2023-01-04T13:58:09.122Z,5.62
2023-01-04T14:00:45.385Z,5.59
2023-01-04T14:03:25.881Z,5.58
2023-01-04T14:06:02.758Z,5.56
2023-01-04T14:08:36.269Z,5.56
2023-01-04T14:11:39.274Z,5.54
2023-01-04T14:14:20.022Z,5.48
2023-01-04T14:16:49.569Z,5.48
2023-01-04T14:19:46.891Z,5.45
2023-01-04T14:22:52.811Z,5.46
2023-01-04T14:25:56.662Z,5.48
2023-01-04T14:28:41.876Z,5.45
2023-01-04T14:31:29.236Z,5.45
2023-01-04T14:33:58.531Z,5.48
2023-01-04T14:36:30.611Z,5.47
2023-01-04T14:39:19.492Z,5.46
2023-01-04T14:41:57.775Z,5.47
2023-01-04T14:44:30.708Z,5.49
2023-01-04T14:47:01.040Z,5.47
2023-01-04T14:49:30.201Z,5.49
2023-01-04T14:52:01.308Z,5.55
2023-01-04T14:54:31.861Z,5.56
2023-01-04T14:57:00.860Z,5.56
2023-01-04T14:59:29.990Z,5.56
2023-01-04T15:01:59.672Z,5.56
2023-01-04T15:04:28.370Z,5.54
2023-01-04T15:06:58.538Z,5.53
2023-01-04T15:09:29.409Z,5.51
2023-01-04T15:11:58.467Z,5.49
2023-01-04T15:14:27.235Z,5.51
2023-01-04T15:16:55.702Z,5.50
2023-01-04T15:19:24.219Z,5.49
2023-01-04T15:21:53.750Z,5.48
2023-01-04T15:24:22.685Z,5.47
2023-01-04T15:26:52.665Z,5.48
2023-01-04T15:29:21.382Z,5.48
2023-01-04T15:31:50.106Z,5.49
2023-01-04T15:34:18.936Z,5.46
2023-01-04T15:36:47.733Z,5.44
2023-01-04T15:39:16.772Z,5.45
2023-01-04T15:42:02.665Z,5.46
2023-01-04T15:44:32.618Z,5.44
2023-01-04T15:47:01.490Z,5.42
2023-01-04T15:49:31.905Z,5.40
2023-01-04T15:52:00.812Z,5.40
2023-01-04T15:54:30.005Z,5.42
2023-01-04T15:56:58.729Z,5.45
2023-01-04T15:59:27.358Z,5.46
2023-01-04T16:01:57.961Z,5.50
2023-01-04T16:04:27.768Z,5.54
2023-01-04T16:06:56.646Z,5.60
2023-01-04T16:09:25.437Z,5.63
2023-01-04T16:12:11.787Z,5.63
2023-01-04T16:14:40.532Z,5.65
2023-01-04T16:17:11.065Z,5.69
2023-01-04T16:19:39.759Z,5.75
2023-01-04T16:22:08.779Z,5.81
2023-01-04T16:25:09.428Z,5.86
2023-01-04T16:27:33.105Z,5.91
2023-01-04T16:30:05.159Z,5.91
2023-01-04T16:32:36.138Z,5.93
2023-01-04T16:35:05.487Z,6.00
2023-01-04T16:37:34.019Z,6.01
2023-01-04T16:40:07.204Z,6.01
2023-01-04T16:42:37.200Z,5.99
2023-01-04T16:45:06.838Z,6.01
2023-01-04T16:47:42.388Z,6.02
2023-01-04T16:50:13.255Z,6.06
2023-01-04T16:52:42.360Z,6.09
2023-01-04T16:55:11.895Z,6.13
2023-01-04T16:57:40.599Z,6.18
2023-01-04T17:00:11.536Z,6.17
2023-01-04T17:02:41.960Z,6.23
2023-01-04T17:05:10.923Z,6.27
2023-01-04T17:07:40.057Z,6.22
2023-01-04T17:10:09.441Z,6.25
2023-01-04T17:12:47.562Z,6.25
2023-01-04T17:18:07.944Z,6.17
2023-01-04T17:20:37.994Z,6.14
2023-01-04T17:23:07.859Z,6.12
2023-01-04T17:25:36.732Z,6.09
2023-01-04T17:28:05.895Z,6.09
2023-01-04T17:30:34.769Z,6.09
2023-01-04T17:33:03.683Z,6.02
2023-01-04T17:35:37.515Z,5.99
2023-01-04T17:38:07.068Z,5.96
2023-01-04T17:40:36.145Z,5.92
2023-01-04T17:43:05.247Z,5.91
2023-01-04T17:45:34.398Z,5.92
2023-01-04T17:48:03.493Z,5.92
2023-01-04T17:50:33.532Z,5.92
2023-01-04T17:53:02.256Z,5.90
2023-01-04T17:55:30.936Z,5.88
2023-01-04T17:58:02.391Z,5.88
2023-01-04T18:00:33.324Z,5.87
2023-01-04T18:03:02.066Z,5.87
2023-01-04T18:05:39.424Z,5.85
2023-01-04T18:08:21.175Z,5.86
2023-01-04T18:11:06.598Z,5.86
2023-01-04T18:13:37.405Z,5.87
2023-01-04T18:16:23.868Z,5.89
2023-01-04T18:18:53.280Z,5.91
2023-01-04T18:21:29.125Z,5.94
2023-01-04T18:24:34.874Z,5.96
2023-01-04T18:29:39.699Z,5.98
2023-01-04T18:32:08.312Z,5.98
2023-01-04T18:34:36.939Z,6.02
2023-01-04T18:37:05.538Z,6.05
2023-01-04T18:39:35.582Z,6.05
2023-01-04T18:42:04.529Z,6.08
2023-01-04T18:44:34.888Z,6.08
2023-01-04T18:47:04.964Z,6.10
2023-01-04T18:49:33.939Z,6.13
2023-01-04T18:52:02.523Z,6.17
2023-01-04T18:54:31.320Z,6.19
2023-01-04T18:57:01.991Z,6.19
2023-01-04T18:59:31.521Z,6.20
2023-01-04T19:02:02.237Z,6.19
2023-01-04T19:04:32.442Z,6.21
2023-01-04T19:07:04.009Z,6.25
2023-01-04T19:09:32.604Z,6.28
2023-01-04T19:12:02.878Z,6.31
2023-01-04T19:14:31.573Z,6.34
2023-01-04T19:17:00.472Z,6.37
2023-01-04T19:19:29.449Z,6.38
2023-01-04T19:21:58.291Z,6.38
2023-01-04T19:24:27.287Z,6.39
2023-01-04T19:27:02.791Z,6.40
2023-01-04T19:29:34.156Z,6.44
2023-01-04T19:32:02.821Z,6.46
2023-01-04T19:34:31.643Z,6.50
2023-01-04T19:37:00.428Z,6.53
2023-01-04T19:39:29.236Z,6.53
2023-01-04T19:41:57.905Z,6.56
2023-01-04T19:44:26.584Z,6.59
2023-01-04T19:46:56.866Z,6.62
2023-01-04T19:49:25.368Z,6.65
2023-01-04T19:51:53.983Z,6.70
2023-01-04T19:54:26.005Z,6.72
2023-01-04T19:56:55.145Z,6.74
2023-01-04T19:59:24.090Z,6.72
2023-01-04T20:01:52.959Z,6.67
2023-01-04T20:04:23.116Z,6.67
2023-01-04T20:06:51.885Z,6.67
2023-01-04T20:09:25.998Z,6.66
2023-01-04T20:12:00.722Z,6.66
2023-01-04T20:14:31.842Z,6.67
2023-01-04T20:17:00.890Z,6.68
2023-01-04T20:19:31.019Z,6.73
2023-01-04T20:22:00.137Z,6.78
2023-01-04T20:24:29.150Z,6.82
2023-01-04T20:26:57.898Z,6.88
2023-01-04T20:29:26.829Z,6.89
2023-01-04T20:31:56.066Z,6.94
2023-01-04T20:34:24.822Z,6.98
2023-01-04T20:36:54.731Z,6.97
2023-01-04T20:39:23.478Z,7.02
2023-01-04T20:42:09.671Z,7.04
2023-01-04T20:44:39.281Z,7.07
2023-01-04T20:47:07.958Z,7.11
2023-01-04T20:49:36.558Z,7.13
2023-01-04T20:52:06.631Z,7.13
2023-01-04T20:54:35.236Z,7.12
2023-01-04T20:57:04.009Z,7.15
2023-01-04T20:59:32.597Z,7.16
2023-01-04T21:02:03.480Z,7.16
2023-01-04T21:04:32.347Z,7.17
2023-01-04T21:07:00.861Z,7.17
2023-01-04T21:09:31.118Z,7.16
2023-01-04T21:12:05.019Z,7.18
2023-01-04T21:14:38.331Z,7.20
2023-01-04T21:17:07.351Z,7.24
2023-01-04T21:19:35.944Z,7.27
2023-01-04T21:22:04.487Z,7.28
2023-01-04T21:24:36.353Z,7.27
2023-01-04T21:27:05.454Z,7.28
2023-01-04T21:29:34.346Z,7.27
2023-01-04T21:32:03.308Z,7.27
2023-01-04T21:34:33.617Z,7.28
2023-01-04T21:37:02.411Z,7.31
2023-01-04T21:39:31.246Z,7.32
2023-01-04T21:42:02.849Z,7.31
2023-01-04T21:44:33.608Z,7.32
2023-01-04T21:47:02.937Z,7.32
2023-01-04T21:49:31.884Z,7.33
2023-01-04T21:52:00.711Z,7.36
2023-01-04T21:54:29.544Z,7.37
2023-01-04T21:56:58.664Z,7.37
2023-01-04T21:59:28.953Z,7.37
2023-01-04T22:01:57.938Z,7.36
2023-01-04T22:04:26.977Z,7.38
2023-01-04T22:06:56.645Z,7.37
2023-01-04T22:09:26.075Z,7.35
2023-01-04T22:11:54.475Z,7.34
2023-01-04T22:14:23.009Z,7.34
2023-01-04T22:16:53.595Z,7.35
2023-01-04T22:19:22.416Z,7.37
2023-01-04T22:21:51.356Z,7.38
2023-01-04T22:24:20.228Z,7.36
2023-01-04T22:26:50.930Z,7.39
2023-01-04T22:29:21.006Z,7.39
2023-01-04T22:31:50.192Z,7.40
2023-01-04T22:34:20.461Z,7.41
2023-01-04T22:36:48.964Z,7.41
2023-01-04T22:39:17.580Z,7.42
2023-01-04T22:41:46.123Z,7.42
2023-01-04T22:44:14.814Z,7.41
2023-01-04T22:46:43.380Z,7.43
2023-01-04T22:49:12.108Z,7.45
2023-01-04T22:51:42.224Z,7.45
2023-01-04T22:54:11.736Z,7.47
2023-01-04T22:56:40.308Z,7.48
2023-01-04T22:59:09.143Z,7.48
2023-01-04T23:01:37.852Z,7.47
2023-01-04T23:04:07.276Z,7.49
2023-01-04T23:06:36.021Z,7.49
2023-01-04T23:09:08.953Z,7.53
2023-01-04T23:11:38.542Z,7.53
2023-01-04T23:14:08.661Z,7.55
2023-01-04T23:16:37.403Z,7.56
2023-01-04T23:19:08.525Z,7.54
2023-01-04T23:21:38.082Z,7.57
2023-01-04T23:24:09.397Z,7.61
2023-01-04T23:26:38.093Z,7.65
2023-01-04T23:29:06.628Z,7.68
2023-01-04T23:31:35.356Z,7.71
2023-01-04T23:34:06.239Z,7.71
2023-01-04T23:36:37.289Z,7.73
2023-01-04T23:39:09.940Z,7.76
2023-01-04T23:41:47.890Z,7.79
2023-01-04T23:46:54.018Z,7.83
2023-01-04T23:49:24.946Z,7.87
2023-01-04T23:51:53.800Z,7.88
2023-01-04T23:54:24.393Z,7.95
2023-01-04T23:56:53.203Z,7.98
2023-01-04T23:59:23.232Z,8.02
